sensor_id;sensor_type;location;lat;lon;timestamp;P1;durP1;ratioP1;P2;durP2;ratioP2
7571;SDS011;3827;49.928;8.548;2024-03-17T00:00:39;11.32;;;9.45;;
7571;SDS011;3827;49.928;8.548;2024-03-17T00:03:08;7.57;;;6.88;;
7571;SDS011;3827;49.928;8.548;2024-03-17T00:05:36;9.95;;;8.90;;
7571;SDS011;3827;49.928;8.548;2024-03-17T00:08:02;12.05;;;9.05;;
7571;SDS011;3827;49.928;8.548;2024-03-17T00:10:30;11.60;;;9.50;;
7571;SDS011;3827;49.928;8.548;2024-03-17T00:12:56;9.73;;;8.75;;
7571;SDS011;3827;49.928;8.548;2024-03-17T00:15:23;9.45;;;8.50;;
7571;SDS011;3827;49.928;8.548;2024-03-17T00:17:49;7.93;;;7.20;;
7571;SDS011;3827;49.928;8.548;2024-03-17T00:20:16;5.97;;;5.38;;
7571;SDS011;3827;49.928;8.548;2024-03-17T00:22:46;5.32;;;4.82;;
7571;SDS011;3827;49.928;8.548;2024-03-17T00:25:13;6.70;;;6.05;;
7571;SDS011;3827;49.928;8.548;2024-03-17T00:27:39;6.68;;;6.00;;
7571;SDS011;3827;49.928;8.548;2024-03-17T00:30:09;6.95;;;6.25;;
7571;SDS011;3827;49.928;8.548;2024-03-17T00:32:35;6.50;;;5.90;;
7571;SDS011;3827;49.928;8.548;2024-03-17T00:35:02;6.47;;;5.90;;
7571;SDS011;3827;49.928;8.548;2024-03-17T00:37:29;7.15;;;6.45;;
7571;SDS011;3827;49.928;8.548;2024-03-17T00:39:58;7.30;;;6.60;;
7571;SDS011;3827;49.928;8.548;2024-03-17T00:42:23;6.97;;;6.28;;
7571;SDS011;3827;49.928;8.548;2024-03-17T00:44:51;8.82;;;8.00;;
7571;SDS011;3827;49.928;8.548;2024-03-17T00:47:16;10.90;;;9.80;;
7571;SDS011;3827;49.928;8.548;2024-03-17T00:49:43;9.65;;;8.80;;
7571;SDS011;3827;49.928;8.548;2024-03-17T00:52:09;9.65;;;8.50;;
7571;SDS011;3827;49.928;8.548;2024-03-17T00:54:36;8.65;;;7.75;;
7571;SDS011;3827;49.928;8.548;2024-03-17T00:57:03;7.78;;;7.07;;
7571;SDS011;3827;49.928;8.548;2024-03-17T00:59:30;7.00;;;6.40;;
7571;SDS011;3827;49.928;8.548;2024-03-17T01:01:56;6.72;;;6.22;;
7571;SDS011;3827;49.928;8.548;2024-03-17T01:04:23;5.60;;;5.18;;
7571;SDS011;3827;49.928;8.548;2024-03-17T01:06:48;6.57;;;5.97;;
7571;SDS011;3827;49.928;8.548;2024-03-17T01:09:15;6.55;;;5.95;;
7571;SDS011;3827;49.928;8.548;2024-03-17T01:11:41;6.10;;;5.60;;
7571;SDS011;3827;49.928;8.548;2024-03-17T01:14:10;7.93;;;7.22;;
7571;SDS011;3827;49.928;8.548;2024-03-17T01:16:35;6.60;;;6.00;;
7571;SDS011;3827;49.928;8.548;2024-03-17T01:19:02;7.68;;;6.88;;
7571;SDS011;3827;49.928;8.548;2024-03-17T01:21:28;7.85;;;7.15;;
7571;SDS011;3827;49.928;8.548;2024-03-17T01:23:54;7.80;;;7.00;;
7571;SDS011;3827;49.928;8.548;2024-03-17T01:26:20;6.77;;;6.17;;
7571;SDS011;3827;49.928;8.548;2024-03-17T01:28:48;7.28;;;6.57;;
7571;SDS011;3827;49.928;8.548;2024-03-17T01:31:16;7.18;;;6.57;;
7571;SDS011;3827;49.928;8.548;2024-03-17T01:33:42;7.38;;;6.68;;
7571;SDS011;3827;49.928;8.548;2024-03-17T01:36:08;7.00;;;6.40;;
7571;SDS011;3827;49.928;8.548;2024-03-17T01:38:35;6.78;;;6.18;;
7571;SDS011;3827;49.928;8.548;2024-03-17T01:41:01;7.40;;;6.70;;
7571;SDS011;3827;49.928;8.548;2024-03-17T01:43:28;7.53;;;6.85;;
7571;SDS011;3827;49.928;8.548;2024-03-17T01:45:53;7.30;;;6.70;;
7571;SDS011;3827;49.928;8.548;2024-03-17T01:48:21;7.57;;;6.95;;
7571;SDS011;3827;49.928;8.548;2024-03-17T01:50:48;8.02;;;7.32;;
7571;SDS011;3827;49.928;8.548;2024-03-17T01:53:17;9.10;;;8.38;;
7571;SDS011;3827;49.928;8.548;2024-03-17T01:55:45;8.30;;;7.50;;
7571;SDS011;3827;49.928;8.548;2024-03-17T01:58:13;7.22;;;6.63;;
7571;SDS011;3827;49.928;8.548;2024-03-17T02:00:39;8.23;;;7.47;;
7571;SDS011;3827;49.928;8.548;2024-03-17T02:03:06;7.10;;;6.50;;
7571;SDS011;3827;49.928;8.548;2024-03-17T02:05:35;7.70;;;7.05;;
7571;SDS011;3827;49.928;8.548;2024-03-17T02:08:03;7.53;;;6.82;;
7571;SDS011;3827;49.928;8.548;2024-03-17T02:10:29;7.90;;;7.18;;
7571;SDS011;3827;49.928;8.548;2024-03-17T02:12:56;7.00;;;6.40;;
7571;SDS011;3827;49.928;8.548;2024-03-17T02:15:22;7.07;;;6.45;;
7571;SDS011;3827;49.928;8.548;2024-03-17T02:17:48;6.80;;;6.20;;
7571;SDS011;3827;49.928;8.548;2024-03-17T02:20:14;5.63;;;5.20;;
7571;SDS011;3827;49.928;8.548;2024-03-17T02:22:44;5.18;;;4.78;;
7571;SDS011;3827;49.928;8.548;2024-03-17T02:25:10;5.97;;;5.43;;
7571;SDS011;3827;49.928;8.548;2024-03-17T02:27:36;5.22;;;4.82;;
7571;SDS011;3827;49.928;8.548;2024-03-17T02:30:02;5.57;;;5.07;;
7571;SDS011;3827;49.928;8.548;2024-03-17T02:32:32;5.85;;;5.35;;
7571;SDS011;3827;49.928;8.548;2024-03-17T02:34:58;6.25;;;5.70;;
7571;SDS011;3827;49.928;8.548;2024-03-17T02:37:25;5.65;;;5.15;;
7571;SDS011;3827;49.928;8.548;2024-03-17T02:39:53;5.05;;;4.57;;
7571;SDS011;3827;49.928;8.548;2024-03-17T02:42:20;5.18;;;4.78;;
7571;SDS011;3827;49.928;8.548;2024-03-17T02:44:45;4.78;;;4.40;;
7571;SDS011;3827;49.928;8.548;2024-03-17T02:47:12;5.03;;;4.50;;
7571;SDS011;3827;49.928;8.548;2024-03-17T02:49:40;5.75;;;5.13;;
7571;SDS011;3827;49.928;8.548;2024-03-17T02:52:09;5.63;;;5.13;;
7571;SDS011;3827;49.928;8.548;2024-03-17T02:54:37;5.00;;;4.60;;
7571;SDS011;3827;49.928;8.548;2024-03-17T02:57:06;4.88;;;4.47;;
7571;SDS011;3827;49.928;8.548;2024-03-17T02:59:33;4.88;;;4.38;;
7571;SDS011;3827;49.928;8.548;2024-03-17T03:02:00;4.63;;;4.22;;
7571;SDS011;3827;49.928;8.548;2024-03-17T03:04:26;4.78;;;4.38;;
7571;SDS011;3827;49.928;8.548;2024-03-17T03:06:54;4.00;;;3.63;;
7571;SDS011;3827;49.928;8.548;2024-03-17T03:09:20;4.15;;;3.80;;
7571;SDS011;3827;49.928;8.548;2024-03-17T03:11:51;4.47;;;4.07;;
7571;SDS011;3827;49.928;8.548;2024-03-17T03:14:19;4.07;;;3.72;;
7571;SDS011;3827;49.928;8.548;2024-03-17T03:16:46;4.20;;;3.80;;
7571;SDS011;3827;49.928;8.548;2024-03-17T03:19:14;3.75;;;3.45;;
7571;SDS011;3827;49.928;8.548;2024-03-17T03:21:41;4.78;;;3.97;;
7571;SDS011;3827;49.928;8.548;2024-03-17T03:24:07;4.85;;;4.45;;
7571;SDS011;3827;49.928;8.548;2024-03-17T03:26:34;4.40;;;4.10;;
7571;SDS011;3827;49.928;8.548;2024-03-17T03:29:01;4.50;;;4.15;;
7571;SDS011;3827;49.928;8.548;2024-03-17T03:31:30;4.47;;;4.07;;
7571;SDS011;3827;49.928;8.548;2024-03-17T03:33:57;4.23;;;3.93;;
7571;SDS011;3827;49.928;8.548;2024-03-17T03:36:26;4.63;;;4.22;;
7571;SDS011;3827;49.928;8.548;2024-03-17T03:38:53;4.93;;;4.53;;
7571;SDS011;3827;49.928;8.548;2024-03-17T03:41:22;4.18;;;3.85;;
7571;SDS011;3827;49.928;8.548;2024-03-17T03:43:49;4.95;;;4.50;;
7571;SDS011;3827;49.928;8.548;2024-03-17T03:46:15;4.60;;;4.20;;
7571;SDS011;3827;49.928;8.548;2024-03-17T03:48:44;4.43;;;4.03;;
7571;SDS011;3827;49.928;8.548;2024-03-17T03:51:10;5.38;;;4.88;;
7571;SDS011;3827;49.928;8.548;2024-03-17T03:53:37;5.95;;;5.45;;
7571;SDS011;3827;49.928;8.548;2024-03-17T03:56:05;5.60;;;5.10;;
7571;SDS011;3827;49.928;8.548;2024-03-17T03:58:32;5.50;;;5.00;;
7571;SDS011;3827;49.928;8.548;2024-03-17T04:01:03;5.50;;;5.00;;
7571;SDS011;3827;49.928;8.548;2024-03-17T04:03:31;5.33;;;4.83;;
7571;SDS011;3827;49.928;8.548;2024-03-17T04:06:04;5.13;;;4.72;;
7571;SDS011;3827;49.928;8.548;2024-03-17T04:08:32;5.15;;;4.75;;
7571;SDS011;3827;49.928;8.548;2024-03-17T04:10:59;5.35;;;4.90;;
7571;SDS011;3827;49.928;8.548;2024-03-17T04:13:27;6.45;;;5.75;;
7571;SDS011;3827;49.928;8.548;2024-03-17T04:15:55;6.40;;;5.78;;
7571;SDS011;3827;49.928;8.548;2024-03-17T04:18:22;6.47;;;5.80;;
7571;SDS011;3827;49.928;8.548;2024-03-17T04:20:50;7.22;;;6.28;;
7571;SDS011;3827;49.928;8.548;2024-03-17T04:23:20;7.20;;;6.50;;
7571;SDS011;3827;49.928;8.548;2024-03-17T04:25:47;6.78;;;6.05;;
7571;SDS011;3827;49.928;8.548;2024-03-17T04:28:14;7.00;;;6.30;;
7571;SDS011;3827;49.928;8.548;2024-03-17T04:30:41;7.05;;;6.35;;
7571;SDS011;3827;49.928;8.548;2024-03-17T04:33:08;6.47;;;5.88;;
7571;SDS011;3827;49.928;8.548;2024-03-17T04:35:36;6.30;;;5.70;;
7571;SDS011;3827;49.928;8.548;2024-03-17T04:38:03;5.70;;;5.13;;
7571;SDS011;3827;49.928;8.548;2024-03-17T04:40:32;5.60;;;4.93;;
7571;SDS011;3827;49.928;8.548;2024-03-17T04:42:58;6.70;;;6.05;;
7571;SDS011;3827;49.928;8.548;2024-03-17T04:45:25;6.50;;;5.90;;
7571;SDS011;3827;49.928;8.548;2024-03-17T04:47:52;6.63;;;6.03;;
7571;SDS011;3827;49.928;8.548;2024-03-17T04:50:19;6.57;;;5.97;;
7571;SDS011;3827;49.928;8.548;2024-03-17T04:52:46;6.10;;;5.60;;
7571;SDS011;3827;49.928;8.548;2024-03-17T04:55:13;5.57;;;5.07;;
7571;SDS011;3827;49.928;8.548;2024-03-17T04:57:43;4.87;;;4.47;;
7571;SDS011;3827;49.928;8.548;2024-03-17T05:00:10;6.55;;;5.95;;
7571;SDS011;3827;49.928;8.548;2024-03-17T05:02:39;5.95;;;5.35;;
7571;SDS011;3827;49.928;8.548;2024-03-17T05:05:06;5.35;;;4.70;;
7571;SDS011;3827;49.928;8.548;2024-03-17T05:07:33;4.60;;;4.20;;
7571;SDS011;3827;49.928;8.548;2024-03-17T05:10:00;4.95;;;4.55;;
7571;SDS011;3827;49.928;8.548;2024-03-17T05:12:27;6.05;;;4.78;;
7571;SDS011;3827;49.928;8.548;2024-03-17T05:14:55;5.07;;;4.45;;
7571;SDS011;3827;49.928;8.548;2024-03-17T05:17:22;5.28;;;4.70;;
7571;SDS011;3827;49.928;8.548;2024-03-17T05:19:49;4.90;;;4.50;;
7571;SDS011;3827;49.928;8.548;2024-03-17T05:22:17;4.45;;;4.05;;
7571;SDS011;3827;49.928;8.548;2024-03-17T05:24:51;4.20;;;3.90;;
7571;SDS011;3827;49.928;8.548;2024-03-17T05:27:25;5.68;;;4.32;;
7571;SDS011;3827;49.928;8.548;2024-03-17T05:29:51;5.03;;;4.53;;
7571;SDS011;3827;49.928;8.548;2024-03-17T05:32:19;4.80;;;4.40;;
7571;SDS011;3827;49.928;8.548;2024-03-17T05:34:46;5.70;;;5.20;;
7571;SDS011;3827;49.928;8.548;2024-03-17T05:37:13;5.68;;;5.18;;
7571;SDS011;3827;49.928;8.548;2024-03-17T05:39:40;6.80;;;5.30;;
7571;SDS011;3827;49.928;8.548;2024-03-17T05:42:07;4.63;;;4.20;;
7571;SDS011;3827;49.928;8.548;2024-03-17T05:44:33;4.93;;;4.50;;
7571;SDS011;3827;49.928;8.548;2024-03-17T05:47:14;4.78;;;4.38;;
7571;SDS011;3827;49.928;8.548;2024-03-17T05:49:43;4.80;;;4.28;;
7571;SDS011;3827;49.928;8.548;2024-03-17T05:52:10;4.70;;;4.30;;
7571;SDS011;3827;49.928;8.548;2024-03-17T05:54:37;4.43;;;4.03;;
7571;SDS011;3827;49.928;8.548;2024-03-17T05:57:04;4.80;;;3.97;;
7571;SDS011;3827;49.928;8.548;2024-03-17T05:59:32;4.38;;;3.97;;
7571;SDS011;3827;49.928;8.548;2024-03-17T06:01:59;3.83;;;3.53;;
7571;SDS011;3827;49.928;8.548;2024-03-17T06:04:25;3.85;;;3.55;;
7571;SDS011;3827;49.928;8.548;2024-03-17T06:06:54;3.83;;;3.53;;
7571;SDS011;3827;49.928;8.548;2024-03-17T06:09:20;3.80;;;3.50;;
7571;SDS011;3827;49.928;8.548;2024-03-17T06:11:47;4.18;;;3.78;;
7571;SDS011;3827;49.928;8.548;2024-03-17T06:14:15;4.60;;;3.67;;
7571;SDS011;3827;49.928;8.548;2024-03-17T06:16:42;3.47;;;3.17;;
7571;SDS011;3827;49.928;8.548;2024-03-17T06:19:09;3.47;;;3.00;;
7571;SDS011;3827;49.928;8.548;2024-03-17T06:21:36;3.30;;;3.00;;
7571;SDS011;3827;49.928;8.548;2024-03-17T06:24:06;3.67;;;3.08;;
7571;SDS011;3827;49.928;8.548;2024-03-17T06:26:32;3.20;;;2.90;;
7571;SDS011;3827;49.928;8.548;2024-03-17T06:29:00;3.80;;;3.50;;
7571;SDS011;3827;49.928;8.548;2024-03-17T06:31:27;3.65;;;3.35;;
7571;SDS011;3827;49.928;8.548;2024-03-17T06:33:54;4.57;;;3.83;;
7571;SDS011;3827;49.928;8.548;2024-03-17T06:36:20;3.37;;;2.90;;
7571;SDS011;3827;49.928;8.548;2024-03-17T06:38:47;3.50;;;3.20;;
7571;SDS011;3827;49.928;8.548;2024-03-17T06:41:15;3.60;;;3.10;;
7571;SDS011;3827;49.928;8.548;2024-03-17T06:43:42;3.63;;;3.33;;
7571;SDS011;3827;49.928;8.548;2024-03-17T06:46:09;4.97;;;4.47;;
7571;SDS011;3827;49.928;8.548;2024-03-17T06:48:36;5.20;;;4.60;;
7571;SDS011;3827;49.928;8.548;2024-03-17T06:51:02;3.53;;;3.22;;
7571;SDS011;3827;49.928;8.548;2024-03-17T06:53:30;3.78;;;3.47;;
7571;SDS011;3827;49.928;8.548;2024-03-17T06:55:59;5.70;;;5.25;;
7571;SDS011;3827;49.928;8.548;2024-03-17T06:58:27;6.10;;;5.50;;
7571;SDS011;3827;49.928;8.548;2024-03-17T07:00:55;4.85;;;4.45;;
7571;SDS011;3827;49.928;8.548;2024-03-17T07:03:26;4.25;;;3.95;;
7571;SDS011;3827;49.928;8.548;2024-03-17T07:05:54;6.57;;;5.47;;
7571;SDS011;3827;49.928;8.548;2024-03-17T07:08:21;4.13;;;3.72;;
7571;SDS011;3827;49.928;8.548;2024-03-17T07:10:55;3.50;;;3.20;;
7571;SDS011;3827;49.928;8.548;2024-03-17T07:13:22;5.88;;;5.32;;
7571;SDS011;3827;49.928;8.548;2024-03-17T07:15:51;3.80;;;3.30;;
7571;SDS011;3827;49.928;8.548;2024-03-17T07:18:17;3.47;;;3.17;;
7571;SDS011;3827;49.928;8.548;2024-03-17T07:20:44;3.60;;;3.30;;
7571;SDS011;3827;49.928;8.548;2024-03-17T07:23:12;4.40;;;3.20;;
7571;SDS011;3827;49.928;8.548;2024-03-17T07:25:39;5.97;;;3.50;;
7571;SDS011;3827;49.928;8.548;2024-03-17T07:28:06;3.60;;;3.22;;
7571;SDS011;3827;49.928;8.548;2024-03-17T07:30:33;3.70;;;3.00;;
7571;SDS011;3827;49.928;8.548;2024-03-17T07:33:01;3.38;;;2.95;;
7571;SDS011;3827;49.928;8.548;2024-03-17T07:35:28;5.20;;;4.47;;
7571;SDS011;3827;49.928;8.548;2024-03-17T07:37:55;8.15;;;7.35;;
7571;SDS011;3827;49.928;8.548;2024-03-17T07:40:22;3.63;;;3.33;;
7571;SDS011;3827;49.928;8.548;2024-03-17T07:42:49;3.20;;;3.00;;
7571;SDS011;3827;49.928;8.548;2024-03-17T07:45:16;5.53;;;4.77;;
7571;SDS011;3827;49.928;8.548;2024-03-17T07:47:43;9.20;;;8.30;;
7571;SDS011;3827;49.928;8.548;2024-03-17T07:50:12;5.13;;;4.70;;
7571;SDS011;3827;49.928;8.548;2024-03-17T07:52:38;3.80;;;3.22;;
7571;SDS011;3827;49.928;8.548;2024-03-17T07:55:05;2.90;;;2.65;;
7571;SDS011;3827;49.928;8.548;2024-03-17T07:57:34;3.28;;;2.97;;
7571;SDS011;3827;49.928;8.548;2024-03-17T08:00:01;3.05;;;2.75;;
7571;SDS011;3827;49.928;8.548;2024-03-17T08:02:35;3.10;;;2.63;;
7571;SDS011;3827;49.928;8.548;2024-03-17T08:05:02;4.53;;;4.13;;
7571;SDS011;3827;49.928;8.548;2024-03-17T08:07:32;2.90;;;2.70;;
7571;SDS011;3827;49.928;8.548;2024-03-17T08:09:59;3.13;;;2.88;;
7571;SDS011;3827;49.928;8.548;2024-03-17T08:12:28;3.92;;;2.55;;
7571;SDS011;3827;49.928;8.548;2024-03-17T08:14:55;2.85;;;2.65;;
7571;SDS011;3827;49.928;8.548;2024-03-17T08:17:21;3.33;;;3.00;;
7571;SDS011;3827;49.928;8.548;2024-03-17T08:19:48;2.97;;;2.50;;
7571;SDS011;3827;49.928;8.548;2024-03-17T08:22:15;3.40;;;3.00;;
7571;SDS011;3827;49.928;8.548;2024-03-17T08:24:43;3.35;;;2.97;;
7571;SDS011;3827;49.928;8.548;2024-03-17T08:27:10;3.40;;;3.10;;
7571;SDS011;3827;49.928;8.548;2024-03-17T08:29:36;3.17;;;2.55;;
7571;SDS011;3827;49.928;8.548;2024-03-17T08:32:03;2.40;;;2.20;;
7571;SDS011;3827;49.928;8.548;2024-03-17T08:34:32;3.20;;;2.63;;
7571;SDS011;3827;49.928;8.548;2024-03-17T08:36:59;3.47;;;2.67;;
7571;SDS011;3827;49.928;8.548;2024-03-17T08:39:25;2.70;;;2.50;;
7571;SDS011;3827;49.928;8.548;2024-03-17T08:41:54;2.65;;;2.45;;
7571;SDS011;3827;49.928;8.548;2024-03-17T08:44:20;3.10;;;2.60;;
7571;SDS011;3827;49.928;8.548;2024-03-17T08:46:47;2.72;;;2.53;;
7571;SDS011;3827;49.928;8.548;2024-03-17T08:49:14;3.42;;;2.83;;
7571;SDS011;3827;49.928;8.548;2024-03-17T08:51:40;3.05;;;2.40;;
7571;SDS011;3827;49.928;8.548;2024-03-17T08:54:07;3.05;;;2.33;;
7571;SDS011;3827;49.928;8.548;2024-03-17T08:56:34;2.40;;;2.20;;
7571;SDS011;3827;49.928;8.548;2024-03-17T08:59:03;3.10;;;2.22;;
7571;SDS011;3827;49.928;8.548;2024-03-17T09:01:30;2.20;;;1.90;;
7571;SDS011;3827;49.928;8.548;2024-03-17T09:03:57;1.90;;;1.60;;
7571;SDS011;3827;49.928;8.548;2024-03-17T09:06:26;2.05;;;1.83;;
7571;SDS011;3827;49.928;8.548;2024-03-17T09:08:55;2.07;;;1.87;;
7571;SDS011;3827;49.928;8.548;2024-03-17T09:11:21;1.90;;;1.70;;
7571;SDS011;3827;49.928;8.548;2024-03-17T09:13:50;2.13;;;1.90;;
7571;SDS011;3827;49.928;8.548;2024-03-17T09:16:18;2.10;;;1.80;;
7571;SDS011;3827;49.928;8.548;2024-03-17T09:18:47;2.13;;;1.58;;
7571;SDS011;3827;49.928;8.548;2024-03-17T09:21:14;2.15;;;1.50;;
7571;SDS011;3827;49.928;8.548;2024-03-17T09:23:42;1.90;;;1.50;;
7571;SDS011;3827;49.928;8.548;2024-03-17T09:26:09;1.60;;;1.45;;
7571;SDS011;3827;49.928;8.548;2024-03-17T09:28:39;1.92;;;1.50;;
7571;SDS011;3827;49.928;8.548;2024-03-17T09:31:05;2.83;;;2.53;;
7571;SDS011;3827;49.928;8.548;2024-03-17T09:33:34;1.70;;;1.60;;
7571;SDS011;3827;49.928;8.548;2024-03-17T09:36:02;2.70;;;2.42;;
7571;SDS011;3827;49.928;8.548;2024-03-17T09:38:31;3.33;;;2.00;;
7571;SDS011;3827;49.928;8.548;2024-03-17T09:40:58;1.75;;;1.48;;
7571;SDS011;3827;49.928;8.548;2024-03-17T09:43:26;2.13;;;1.58;;
7571;SDS011;3827;49.928;8.548;2024-03-17T09:45:53;2.33;;;1.52;;
7571;SDS011;3827;49.928;8.548;2024-03-17T09:48:23;1.50;;;1.40;;
7571;SDS011;3827;49.928;8.548;2024-03-17T09:50:52;1.60;;;1.47;;
7571;SDS011;3827;49.928;8.548;2024-03-17T09:53:22;2.17;;;1.40;;
7571;SDS011;3827;49.928;8.548;2024-03-17T09:55:51;1.80;;;1.70;;
7571;SDS011;3827;49.928;8.548;2024-03-17T09:58:18;1.90;;;1.53;;
7571;SDS011;3827;49.928;8.548;2024-03-17T10:00:45;2.50;;;1.80;;
7571;SDS011;3827;49.928;8.548;2024-03-17T10:03:12;2.88;;;2.55;;
7571;SDS011;3827;49.928;8.548;2024-03-17T10:06:07;1.70;;;1.47;;
7571;SDS011;3827;49.928;8.548;2024-03-17T10:08:40;1.88;;;1.45;;
7571;SDS011;3827;49.928;8.548;2024-03-17T10:11:10;2.00;;;1.50;;
7571;SDS011;3827;49.928;8.548;2024-03-17T10:13:38;2.20;;;1.38;;
7571;SDS011;3827;49.928;8.548;2024-03-17T10:16:05;1.63;;;1.50;;
7571;SDS011;3827;49.928;8.548;2024-03-17T10:18:32;3.25;;;1.75;;
7571;SDS011;3827;49.928;8.548;2024-03-17T10:20:59;1.95;;;1.50;;
7571;SDS011;3827;49.928;8.548;2024-03-17T10:23:28;4.65;;;1.60;;
7571;SDS011;3827;49.928;8.548;2024-03-17T10:25:57;2.75;;;1.55;;
7571;SDS011;3827;49.928;8.548;2024-03-17T10:28:23;2.25;;;1.63;;
7571;SDS011;3827;49.928;8.548;2024-03-17T10:30:57;1.48;;;1.30;;
7571;SDS011;3827;49.928;8.548;2024-03-17T10:33:24;2.40;;;1.52;;
7571;SDS011;3827;49.928;8.548;2024-03-17T10:35:57;2.78;;;1.70;;
7571;SDS011;3827;49.928;8.548;2024-03-17T10:38:25;2.10;;;1.50;;
7571;SDS011;3827;49.928;8.548;2024-03-17T10:40:54;2.25;;;2.05;;
7571;SDS011;3827;49.928;8.548;2024-03-17T10:43:20;2.45;;;1.92;;
7571;SDS011;3827;49.928;8.548;2024-03-17T10:45:51;2.25;;;1.90;;
7571;SDS011;3827;49.928;8.548;2024-03-17T10:48:19;2.50;;;1.77;;
7571;SDS011;3827;49.928;8.548;2024-03-17T10:50:47;3.15;;;2.28;;
7571;SDS011;3827;49.928;8.548;2024-03-17T10:53:17;3.15;;;2.10;;
7571;SDS011;3827;49.928;8.548;2024-03-17T10:55:53;2.83;;;2.43;;
7571;SDS011;3827;49.928;8.548;2024-03-17T10:58:32;2.70;;;2.50;;
7571;SDS011;3827;49.928;8.548;2024-03-17T11:01:01;2.95;;;2.63;;
7571;SDS011;3827;49.928;8.548;2024-03-17T11:03:29;4.00;;;2.80;;
7571;SDS011;3827;49.928;8.548;2024-03-17T11:05:57;3.47;;;2.72;;
7571;SDS011;3827;49.928;8.548;2024-03-17T11:08:25;3.58;;;3.10;;
7571;SDS011;3827;49.928;8.548;2024-03-17T11:10:54;3.78;;;2.35;;
7571;SDS011;3827;49.928;8.548;2024-03-17T11:13:24;2.70;;;2.50;;
7571;SDS011;3827;49.928;8.548;2024-03-17T11:15:51;2.70;;;2.50;;
7571;SDS011;3827;49.928;8.548;2024-03-17T11:18:31;3.38;;;2.63;;
7571;SDS011;3827;49.928;8.548;2024-03-17T11:21:03;2.60;;;2.40;;
7571;SDS011;3827;49.928;8.548;2024-03-17T11:23:35;3.10;;;2.70;;
7571;SDS011;3827;49.928;8.548;2024-03-17T11:26:05;3.70;;;3.08;;
7571;SDS011;3827;49.928;8.548;2024-03-17T11:34:26;3.75;;;2.83;;
7571;SDS011;3827;49.928;8.548;2024-03-17T11:36:55;3.92;;;3.03;;
7571;SDS011;3827;49.928;8.548;2024-03-17T11:42:22;5.28;;;3.38;;
7571;SDS011;3827;49.928;8.548;2024-03-17T11:44:54;3.40;;;2.92;;
7571;SDS011;3827;49.928;8.548;2024-03-17T11:47:23;3.25;;;2.90;;
7571;SDS011;3827;49.928;8.548;2024-03-17T11:49:59;3.40;;;3.10;;
7571;SDS011;3827;49.928;8.548;2024-03-17T11:52:28;2.90;;;2.53;;
7571;SDS011;3827;49.928;8.548;2024-03-17T11:54:55;3.30;;;3.10;;
7571;SDS011;3827;49.928;8.548;2024-03-17T11:57:23;3.20;;;2.85;;
7571;SDS011;3827;49.928;8.548;2024-03-17T11:59:51;3.28;;;2.97;;
7571;SDS011;3827;49.928;8.548;2024-03-17T12:02:18;3.63;;;3.10;;
7571;SDS011;3827;49.928;8.548;2024-03-17T12:04:46;4.00;;;3.58;;
7571;SDS011;3827;49.928;8.548;2024-03-17T12:07:13;4.33;;;3.90;;
7571;SDS011;3827;49.928;8.548;2024-03-17T12:09:41;4.30;;;3.50;;
7571;SDS011;3827;49.928;8.548;2024-03-17T12:12:08;4.33;;;3.60;;
7571;SDS011;3827;49.928;8.548;2024-03-17T12:14:37;3.90;;;3.60;;
7571;SDS011;3827;49.928;8.548;2024-03-17T12:17:04;6.78;;;3.65;;
7571;SDS011;3827;49.928;8.548;2024-03-17T12:19:33;4.03;;;3.63;;
7571;SDS011;3827;49.928;8.548;2024-03-17T12:21:59;3.70;;;3.30;;
7571;SDS011;3827;49.928;8.548;2024-03-17T12:24:28;5.55;;;3.88;;
7571;SDS011;3827;49.928;8.548;2024-03-17T12:26:55;4.45;;;4.03;;
7571;SDS011;3827;49.928;8.548;2024-03-17T12:29:25;4.90;;;3.87;;
7571;SDS011;3827;49.928;8.548;2024-03-17T12:31:54;4.57;;;4.18;;
7571;SDS011;3827;49.928;8.548;2024-03-17T12:34:22;5.73;;;4.67;;
7571;SDS011;3827;49.928;8.548;2024-03-17T12:36:51;6.72;;;5.68;;
7571;SDS011;3827;49.928;8.548;2024-03-17T12:39:18;5.95;;;4.90;;
7571;SDS011;3827;49.928;8.548;2024-03-17T12:41:45;4.10;;;3.80;;
7571;SDS011;3827;49.928;8.548;2024-03-17T12:44:26;4.28;;;3.88;;
7571;SDS011;3827;49.928;8.548;2024-03-17T12:46:55;4.43;;;4.03;;
7571;SDS011;3827;49.928;8.548;2024-03-17T12:49:23;5.03;;;4.18;;
7571;SDS011;3827;49.928;8.548;2024-03-17T12:51:52;4.93;;;4.18;;
7571;SDS011;3827;49.928;8.548;2024-03-17T12:54:20;6.00;;;4.32;;
7571;SDS011;3827;49.928;8.548;2024-03-17T12:56:48;7.55;;;4.75;;
7571;SDS011;3827;49.928;8.548;2024-03-17T12:59:39;7.07;;;4.40;;
7571;SDS011;3827;49.928;8.548;2024-03-17T13:02:26;5.13;;;3.63;;
7571;SDS011;3827;49.928;8.548;2024-03-17T13:05:07;4.40;;;3.95;;
7571;SDS011;3827;49.928;8.548;2024-03-17T13:07:36;4.60;;;4.20;;
7571;SDS011;3827;49.928;8.548;2024-03-17T13:10:04;4.53;;;4.10;;
7571;SDS011;3827;49.928;8.548;2024-03-17T13:12:32;4.53;;;4.13;;
7571;SDS011;3827;49.928;8.548;2024-03-17T13:14:59;4.73;;;4.20;;
7571;SDS011;3827;49.928;8.548;2024-03-17T13:17:28;5.43;;;4.72;;
7571;SDS011;3827;49.928;8.548;2024-03-17T13:19:55;4.78;;;4.30;;
7571;SDS011;3827;49.928;8.548;2024-03-17T13:22:22;5.50;;;4.90;;
7571;SDS011;3827;49.928;8.548;2024-03-17T13:24:49;4.60;;;4.13;;
7571;SDS011;3827;49.928;8.548;2024-03-17T13:27:16;5.63;;;4.82;;
7571;SDS011;3827;49.928;8.548;2024-03-17T13:29:47;5.82;;;5.15;;
7571;SDS011;3827;49.928;8.548;2024-03-17T13:32:14;5.03;;;4.55;;
7571;SDS011;3827;49.928;8.548;2024-03-17T13:34:44;5.00;;;4.50;;
7571;SDS011;3827;49.928;8.548;2024-03-17T13:37:10;5.70;;;4.93;;
7571;SDS011;3827;49.928;8.548;2024-03-17T13:39:37;5.28;;;4.68;;
7571;SDS011;3827;49.928;8.548;2024-03-17T13:42:04;5.05;;;4.05;;
7571;SDS011;3827;49.928;8.548;2024-03-17T13:44:32;5.27;;;4.70;;
7571;SDS011;3827;49.928;8.548;2024-03-17T13:46:59;5.28;;;4.40;;
7571;SDS011;3827;49.928;8.548;2024-03-17T13:49:28;5.50;;;4.93;;
7571;SDS011;3827;49.928;8.548;2024-03-17T13:51:56;4.97;;;4.57;;
7571;SDS011;3827;49.928;8.548;2024-03-17T13:54:23;4.95;;;4.45;;
7571;SDS011;3827;49.928;8.548;2024-03-17T13:56:50;6.37;;;4.70;;
7571;SDS011;3827;49.928;8.548;2024-03-17T13:59:17;5.47;;;4.27;;
7571;SDS011;3827;49.928;8.548;2024-03-17T14:01:44;4.68;;;4.15;;
7571;SDS011;3827;49.928;8.548;2024-03-17T14:04:15;6.40;;;5.10;;
7571;SDS011;3827;49.928;8.548;2024-03-17T14:06:43;6.20;;;4.53;;
7571;SDS011;3827;49.928;8.548;2024-03-17T14:09:15;5.57;;;5.07;;
7571;SDS011;3827;49.928;8.548;2024-03-17T14:11:44;4.83;;;4.33;;
7571;SDS011;3827;49.928;8.548;2024-03-17T14:14:11;5.45;;;4.45;;
7571;SDS011;3827;49.928;8.548;2024-03-17T14:16:38;5.38;;;4.80;;
7571;SDS011;3827;49.928;8.548;2024-03-17T14:19:05;5.20;;;4.38;;
7571;SDS011;3827;49.928;8.548;2024-03-17T14:21:32;5.22;;;4.72;;
7571;SDS011;3827;49.928;8.548;2024-03-17T14:23:59;4.80;;;4.35;;
7571;SDS011;3827;49.928;8.548;2024-03-17T14:26:29;5.63;;;4.47;;
7571;SDS011;3827;49.928;8.548;2024-03-17T14:28:56;5.30;;;4.80;;
7571;SDS011;3827;49.928;8.548;2024-03-17T14:31:24;5.03;;;4.30;;
7571;SDS011;3827;49.928;8.548;2024-03-17T14:33:51;5.23;;;4.60;;
7571;SDS011;3827;49.928;8.548;2024-03-17T14:36:18;5.20;;;4.60;;
7571;SDS011;3827;49.928;8.548;2024-03-17T14:38:51;6.18;;;4.30;;
7571;SDS011;3827;49.928;8.548;2024-03-17T14:41:18;5.38;;;4.82;;
7571;SDS011;3827;49.928;8.548;2024-03-17T14:43:46;5.75;;;5.18;;
7571;SDS011;3827;49.928;8.548;2024-03-17T14:46:13;6.38;;;4.90;;
7571;SDS011;3827;49.928;8.548;2024-03-17T14:48:40;6.10;;;5.05;;
7571;SDS011;3827;49.928;8.548;2024-03-17T14:51:08;7.05;;;5.22;;
7571;SDS011;3827;49.928;8.548;2024-03-17T14:53:35;5.60;;;4.97;;
7571;SDS011;3827;49.928;8.548;2024-03-17T14:56:07;5.72;;;4.90;;
7571;SDS011;3827;49.928;8.548;2024-03-17T14:58:34;5.03;;;4.53;;
7571;SDS011;3827;49.928;8.548;2024-03-17T15:01:02;4.80;;;4.35;;
7571;SDS011;3827;49.928;8.548;2024-03-17T15:03:29;5.85;;;5.10;;
7571;SDS011;3827;49.928;8.548;2024-03-17T15:05:56;4.55;;;4.13;;
7571;SDS011;3827;49.928;8.548;2024-03-17T15:08:23;5.30;;;4.32;;
7571;SDS011;3827;49.928;8.548;2024-03-17T15:10:50;5.63;;;4.53;;
7571;SDS011;3827;49.928;8.548;2024-03-17T15:13:19;5.13;;;4.63;;
7571;SDS011;3827;49.928;8.548;2024-03-17T15:15:46;5.55;;;4.68;;
7571;SDS011;3827;49.928;8.548;2024-03-17T15:18:14;5.28;;;4.35;;
7571;SDS011;3827;49.928;8.548;2024-03-17T15:20:42;4.50;;;4.10;;
7571;SDS011;3827;49.928;8.548;2024-03-17T15:23:08;6.10;;;4.38;;
7571;SDS011;3827;49.928;8.548;2024-03-17T15:25:35;7.45;;;4.90;;
7571;SDS011;3827;49.928;8.548;2024-03-17T15:28:02;6.55;;;4.30;;